sensor_id;sensor_type;location;lat;lon;timestamp;P1;durP1;ratioP1;P2;durP2;ratioP2
49582;SDS011;36329;48.816;44.624;2023-05-10T00:00:06;2.6;;;1.3;;
49582;SDS011;36329;48.816;44.624;2023-05-10T00:03:09;2.5;;;1.2;;
49582;SDS011;36329;48.816;44.624;2023-05-10T00:06:10;3.1;;;1.3;;
49582;SDS011;36329;48.816;44.624;2023-05-10T00:09:13;2.9;;;1.2;;
49582;SDS011;36329;48.816;44.624;2023-05-10T00:12:15;2.2;;;1.1;;
49582;SDS011;36329;48.816;44.624;2023-05-10T00:15:17;6.1;;;1.3;;
49582;SDS011;36329;48.816;44.624;2023-05-10T00:18:19;2.7;;;1.3;;
49582;SDS011;36329;48.816;44.624;2023-05-10T00:21:21;1.6;;;1.2;;
49582;SDS011;36329;48.816;44.624;2023-05-10T00:24:23;3.7;;;1.3;;
49582;SDS011;36329;48.816;44.624;2023-05-10T00:27:25;2.8;;;1.3;;
49582;SDS011;36329;48.816;44.624;2023-05-10T00:30:27;3.5;;;1.6;;
49582;SDS011;36329;48.816;44.624;2023-05-10T00:33:29;4.6;;;1.6;;
49582;SDS011;36329;48.816;44.624;2023-05-10T00:36:32;4;;;1.2;;
49582;SDS011;36329;48.816;44.624;2023-05-10T00:39:33;5;;;1.3;;
49582;SDS011;36329;48.816;44.624;2023-05-10T00:42:35;3.9;;;1.4;;
49582;SDS011;36329;48.816;44.624;2023-05-10T00:45:37;2.3;;;1.2;;
49582;SDS011;36329;48.816;44.624;2023-05-10T00:48:41;4.7;;;1.3;;
49582;SDS011;36329;48.816;44.624;2023-05-10T00:51:44;3.5;;;1.4;;
49582;SDS011;36329;48.816;44.624;2023-05-10T00:54:46;3.8;;;1.3;;
49582;SDS011;36329;48.816;44.624;2023-05-10T00:57:49;2.9;;;1.4;;
49582;SDS011;36329;48.816;44.624;2023-05-10T01:00:51;2.5;;;1.3;;
49582;SDS011;36329;48.816;44.624;2023-05-10T01:03:53;3.6;;;1.4;;
49582;SDS011;36329;48.816;44.624;2023-05-10T01:06:56;3.5;;;1.5;;
49582;SDS011;36329;48.816;44.624;2023-05-10T01:09:58;2.6;;;1.4;;
49582;SDS011;36329;48.816;44.624;2023-05-10T01:13:01;5.4;;;1.2;;
49582;SDS011;36329;48.816;44.624;2023-05-10T01:16:03;4.5;;;1.2;;
49582;SDS011;36329;48.816;44.624;2023-05-10T01:19:08;3.1;;;1.5;;
49582;SDS011;36329;48.816;44.624;2023-05-10T01:22:25;3;;;1.3;;
49582;SDS011;36329;48.816;44.624;2023-05-10T01:25:49;2.9;;;1.2;;
49582;SDS011;36329;48.816;44.624;2023-05-10T01:32:36;2.4;;;1.3;;
49582;SDS011;36329;48.816;44.624;2023-05-10T01:35:47;2.2;;;1.1;;
49582;SDS011;36329;48.816;44.624;2023-05-10T01:38:58;3.7;;;1.1;;
49582;SDS011;36329;48.816;44.624;2023-05-10T01:42:07;2.6;;;1.1;;
49582;SDS011;36329;48.816;44.624;2023-05-10T01:45:14;4.6;;;1.2;;
49582;SDS011;36329;48.816;44.624;2023-05-10T01:48:21;3.1;;;1.3;;
49582;SDS011;36329;48.816;44.624;2023-05-10T01:51:27;3;;;1.4;;
49582;SDS011;36329;48.816;44.624;2023-05-10T01:54:34;3.8;;;1.2;;
49582;SDS011;36329;48.816;44.624;2023-05-10T01:57:40;3;;;1.1;;
49582;SDS011;36329;48.816;44.624;2023-05-10T02:00:46;2.5;;;1.2;;
49582;SDS011;36329;48.816;44.624;2023-05-10T02:03:51;2.7;;;1.2;;
49582;SDS011;36329;48.816;44.624;2023-05-10T02:06:54;3;;;1.4;;
49582;SDS011;36329;48.816;44.624;2023-05-10T02:09:58;3.4;;;1.5;;
49582;SDS011;36329;48.816;44.624;2023-05-10T02:13:00;2.3;;;1.3;;
49582;SDS011;36329;48.816;44.624;2023-05-10T02:16:04;4.2;;;1.5;;
49582;SDS011;36329;48.816;44.624;2023-05-10T02:19:07;5.5;;;1.4;;
49582;SDS011;36329;48.816;44.624;2023-05-10T02:22:10;4.6;;;1.5;;
49582;SDS011;36329;48.816;44.624;2023-05-10T02:25:14;6.9;;;1.6;;
49582;SDS011;36329;48.816;44.624;2023-05-10T02:28:17;2.2;;;1.5;;
49582;SDS011;36329;48.816;44.624;2023-05-10T02:31:20;3.6;;;1.6;;
49582;SDS011;36329;48.816;44.624;2023-05-10T02:34:23;2.1;;;1.2;;
49582;SDS011;36329;48.816;44.624;2023-05-10T02:37:27;3.6;;;1.6;;
49582;SDS011;36329;48.816;44.624;2023-05-10T02:40:30;2.4;;;1.5;;
49582;SDS011;36329;48.816;44.624;2023-05-10T02:43:34;2.9;;;1.4;;
49582;SDS011;36329;48.816;44.624;2023-05-10T02:46:36;3.7;;;1.5;;
49582;SDS011;36329;48.816;44.624;2023-05-10T02:49:38;2.1;;;1.4;;
49582;SDS011;36329;48.816;44.624;2023-05-10T02:52:42;4.3;;;1.7;;
49582;SDS011;36329;48.816;44.624;2023-05-10T02:55:49;3.3;;;1.7;;
49582;SDS011;36329;48.816;44.624;2023-05-10T02:58:54;3.4;;;1.3;;
49582;SDS011;36329;48.816;44.624;2023-05-10T03:01:56;3.4;;;1.4;;
49582;SDS011;36329;48.816;44.624;2023-05-10T03:04:58;3.5;;;1.6;;
49582;SDS011;36329;48.816;44.624;2023-05-10T03:08:00;4;;;1.6;;
49582;SDS011;36329;48.816;44.624;2023-05-10T03:11:09;3.6;;;1.6;;
49582;SDS011;36329;48.816;44.624;2023-05-10T03:14:21;4.1;;;1.4;;
49582;SDS011;36329;48.816;44.624;2023-05-10T03:17:35;5.1;;;1.6;;
49582;SDS011;36329;48.816;44.624;2023-05-10T03:20:47;3.5;;;1.6;;
49582;SDS011;36329;48.816;44.624;2023-05-10T03:23:53;2.9;;;1.6;;
49582;SDS011;36329;48.816;44.624;2023-05-10T03:27:01;3.6;;;1.6;;
49582;SDS011;36329;48.816;44.624;2023-05-10T03:30:06;3.5;;;1.6;;
49582;SDS011;36329;48.816;44.624;2023-05-10T03:33:09;2.9;;;1.5;;
49582;SDS011;36329;48.816;44.624;2023-05-10T03:36:11;3.1;;;1.6;;
49582;SDS011;36329;48.816;44.624;2023-05-10T03:39:13;4.7;;;1.6;;
49582;SDS011;36329;48.816;44.624;2023-05-10T03:42:15;5.1;;;1.6;;
49582;SDS011;36329;48.816;44.624;2023-05-10T03:45:17;3.5;;;1.7;;
49582;SDS011;36329;48.816;44.624;2023-05-10T03:48:19;3.7;;;1.7;;
49582;SDS011;36329;48.816;44.624;2023-05-10T03:51:22;4.1;;;1.6;;
49582;SDS011;36329;48.816;44.624;2023-05-10T03:54:24;5.8;;;1.4;;
49582;SDS011;36329;48.816;44.624;2023-05-10T03:57:26;3.7;;;1.7;;
49582;SDS011;36329;48.816;44.624;2023-05-10T04:00:28;4.4;;;1.6;;
49582;SDS011;36329;48.816;44.624;2023-05-10T04:03:30;6.2;;;1.5;;
49582;SDS011;36329;48.816;44.624;2023-05-10T04:06:31;6.7;;;1.7;;
49582;SDS011;36329;48.816;44.624;2023-05-10T04:09:33;5.7;;;1.5;;
49582;SDS011;36329;48.816;44.624;2023-05-10T04:12:35;5.9;;;1.7;;
49582;SDS011;36329;48.816;44.624;2023-05-10T04:15:37;2.9;;;1.4;;
49582;SDS011;36329;48.816;44.624;2023-05-10T04:18:39;4.6;;;1.5;;
49582;SDS011;36329;48.816;44.624;2023-05-10T04:21:41;3;;;1.8;;
49582;SDS011;36329;48.816;44.624;2023-05-10T04:24:43;7;;;1.4;;
49582;SDS011;36329;48.816;44.624;2023-05-10T04:27:45;4.4;;;1.6;;
49582;SDS011;36329;48.816;44.624;2023-05-10T04:30:47;4.5;;;1.3;;
49582;SDS011;36329;48.816;44.624;2023-05-10T04:33:49;2.9;;;1.4;;
49582;SDS011;36329;48.816;44.624;2023-05-10T04:36:51;4.9;;;1.7;;
49582;SDS011;36329;48.816;44.624;2023-05-10T04:39:53;7.7;;;1.6;;
49582;SDS011;36329;48.816;44.624;2023-05-10T04:42:55;5.3;;;2;;
49582;SDS011;36329;48.816;44.624;2023-05-10T04:45:56;2.6;;;1.5;;
49582;SDS011;36329;48.816;44.624;2023-05-10T04:48:58;4.7;;;1.7;;
49582;SDS011;36329;48.816;44.624;2023-05-10T04:52:00;3.3;;;1.4;;
49582;SDS011;36329;48.816;44.624;2023-05-10T04:55:02;13.5;;;1.6;;
49582;SDS011;36329;48.816;44.624;2023-05-10T04:58:05;4.8;;;1.7;;
49582;SDS011;36329;48.816;44.624;2023-05-10T05:01:07;2.6;;;1.4;;
49582;SDS011;36329;48.816;44.624;2023-05-10T05:04:10;3.7;;;1.5;;
49582;SDS011;36329;48.816;44.624;2023-05-10T05:07:12;3.2;;;1.5;;
49582;SDS011;36329;48.816;44.624;2023-05-10T05:10:13;3.2;;;1.5;;
49582;SDS011;36329;48.816;44.624;2023-05-10T05:13:15;4.2;;;1.8;;
49582;SDS011;36329;48.816;44.624;2023-05-10T05:16:17;4.8;;;1.8;;
49582;SDS011;36329;48.816;44.624;2023-05-10T05:19:19;6.9;;;2;;
49582;SDS011;36329;48.816;44.624;2023-05-10T05:22:21;4.5;;;1.8;;
49582;SDS011;36329;48.816;44.624;2023-05-10T05:25:23;5.1;;;1.6;;
49582;SDS011;36329;48.816;44.624;2023-05-10T05:28:26;3;;;1.4;;
49582;SDS011;36329;48.816;44.624;2023-05-10T05:31:28;4.1;;;1.7;;
49582;SDS011;36329;48.816;44.624;2023-05-10T05:34:30;5;;;1.7;;
49582;SDS011;36329;48.816;44.624;2023-05-10T05:37:32;5.5;;;1.5;;
49582;SDS011;36329;48.816;44.624;2023-05-10T05:40:34;4.8;;;1.7;;
49582;SDS011;36329;48.816;44.624;2023-05-10T05:43:36;7.9;;;1.8;;
49582;SDS011;36329;48.816;44.624;2023-05-10T05:46:37;3.7;;;2;;
49582;SDS011;36329;48.816;44.624;2023-05-10T05:49:39;5.1;;;1.8;;
49582;SDS011;36329;48.816;44.624;2023-05-10T05:52:41;4.2;;;1.7;;
49582;SDS011;36329;48.816;44.624;2023-05-10T05:55:50;7.2;;;2.1;;
49582;SDS011;36329;48.816;44.624;2023-05-10T05:58:54;5.6;;;1.6;;
49582;SDS011;36329;48.816;44.624;2023-05-10T06:01:56;3.7;;;1.9;;
49582;SDS011;36329;48.816;44.624;2023-05-10T06:04:58;4.5;;;1.8;;
49582;SDS011;36329;48.816;44.624;2023-05-10T06:08:00;9.2;;;2.1;;
49582;SDS011;36329;48.816;44.624;2023-05-10T06:11:02;6.1;;;2;;
49582;SDS011;36329;48.816;44.624;2023-05-10T06:14:04;10.1;;;2;;
49582;SDS011;36329;48.816;44.624;2023-05-10T06:17:06;5.5;;;2;;
49582;SDS011;36329;48.816;44.624;2023-05-10T06:20:08;5.7;;;1.8;;
49582;SDS011;36329;48.816;44.624;2023-05-10T06:23:11;4.2;;;1.9;;
49582;SDS011;36329;48.816;44.624;2023-05-10T06:26:12;5.5;;;1.9;;
49582;SDS011;36329;48.816;44.624;2023-05-10T06:29:15;9;;;1.6;;
49582;SDS011;36329;48.816;44.624;2023-05-10T06:32:17;5.1;;;2.1;;
49582;SDS011;36329;48.816;44.624;2023-05-10T06:35:19;6;;;1.6;;
49582;SDS011;36329;48.816;44.624;2023-05-10T06:38:21;6.1;;;1.7;;
49582;SDS011;36329;48.816;44.624;2023-05-10T06:41:23;6.1;;;1.9;;
49582;SDS011;36329;48.816;44.624;2023-05-10T06:44:25;5.8;;;1.6;;
49582;SDS011;36329;48.816;44.624;2023-05-10T06:47:27;8;;;1.8;;
49582;SDS011;36329;48.816;44.624;2023-05-10T06:50:28;3.3;;;1.7;;
49582;SDS011;36329;48.816;44.624;2023-05-10T06:53:30;4.5;;;1.7;;
49582;SDS011;36329;48.816;44.624;2023-05-10T06:56:32;7;;;1.9;;
49582;SDS011;36329;48.816;44.624;2023-05-10T06:59:35;6.3;;;1.7;;
49582;SDS011;36329;48.816;44.624;2023-05-10T07:02:37;4.6;;;1.6;;
49582;SDS011;36329;48.816;44.624;2023-05-10T07:05:38;4.7;;;1.9;;
49582;SDS011;36329;48.816;44.624;2023-05-10T07:08:40;6;;;1.9;;
49582;SDS011;36329;48.816;44.624;2023-05-10T07:11:42;6.6;;;2.1;;
49582;SDS011;36329;48.816;44.624;2023-05-10T07:14:44;6;;;2.1;;
49582;SDS011;36329;48.816;44.624;2023-05-10T07:17:46;4.5;;;1.8;;
49582;SDS011;36329;48.816;44.624;2023-05-10T07:20:48;5.3;;;1.8;;
49582;SDS011;36329;48.816;44.624;2023-05-10T07:23:50;3.7;;;1.8;;
49582;SDS011;36329;48.816;44.624;2023-05-10T07:26:52;5.2;;;1.9;;
49582;SDS011;36329;48.816;44.624;2023-05-10T07:29:54;5.7;;;2.1;;
49582;SDS011;36329;48.816;44.624;2023-05-10T07:32:56;5.6;;;2.3;;
49582;SDS011;36329;48.816;44.624;2023-05-10T07:35:58;6.6;;;2.3;;
49582;SDS011;36329;48.816;44.624;2023-05-10T07:39:00;7.8;;;2.7;;
49582;SDS011;36329;48.816;44.624;2023-05-10T07:42:02;10;;;2.6;;
49582;SDS011;36329;48.816;44.624;2023-05-10T07:45:04;8.5;;;2.7;;
49582;SDS011;36329;48.816;44.624;2023-05-10T07:48:07;6.3;;;2.2;;
49582;SDS011;36329;48.816;44.624;2023-05-10T07:51:10;6.4;;;2.7;;
49582;SDS011;36329;48.816;44.624;2023-05-10T07:54:11;6.2;;;2.5;;
49582;SDS011;36329;48.816;44.624;2023-05-10T07:57:13;4.1;;;2.2;;
49582;SDS011;36329;48.816;44.624;2023-05-10T08:00:17;8.9;;;2.6;;
49582;SDS011;36329;48.816;44.624;2023-05-10T08:03:20;5;;;2.5;;
49582;SDS011;36329;48.816;44.624;2023-05-10T08:06:21;7.2;;;2.5;;
49582;SDS011;36329;48.816;44.624;2023-05-10T08:09:23;8.6;;;2.6;;
49582;SDS011;36329;48.816;44.624;2023-05-10T08:12:25;6;;;2.2;;
49582;SDS011;36329;48.816;44.624;2023-05-10T08:15:27;4.1;;;1.9;;
49582;SDS011;36329;48.816;44.624;2023-05-10T08:18:29;8.8;;;2.2;;
49582;SDS011;36329;48.816;44.624;2023-05-10T08:21:31;6.9;;;2.1;;
49582;SDS011;36329;48.816;44.624;2023-05-10T08:24:33;9;;;2;;
49582;SDS011;36329;48.816;44.624;2023-05-10T08:27:35;8.1;;;2.1;;
49582;SDS011;36329;48.816;44.624;2023-05-10T08:30:37;6.9;;;1.9;;
49582;SDS011;36329;48.816;44.624;2023-05-10T08:33:39;7.3;;;1.9;;
49582;SDS011;36329;48.816;44.624;2023-05-10T08:36:41;5.8;;;2.1;;
49582;SDS011;36329;48.816;44.624;2023-05-10T08:39:42;5.9;;;2;;
49582;SDS011;36329;48.816;44.624;2023-05-10T08:42:47;6.3;;;1.9;;
49582;SDS011;36329;48.816;44.624;2023-05-10T08:46:05;7.9;;;2;;
49582;SDS011;36329;48.816;44.624;2023-05-10T08:49:11;8.7;;;2.1;;
49582;SDS011;36329;48.816;44.624;2023-05-10T08:52:14;6.5;;;2.7;;
49582;SDS011;36329;48.816;44.624;2023-05-10T08:55:18;6.2;;;2.3;;
49582;SDS011;36329;48.816;44.624;2023-05-10T08:58:21;6.9;;;2.4;;
49582;SDS011;36329;48.816;44.624;2023-05-10T09:01:23;6.8;;;2.6;;
49582;SDS011;36329;48.816;44.624;2023-05-10T09:04:26;5.9;;;2.6;;
49582;SDS011;36329;48.816;44.624;2023-05-10T09:07:29;8.8;;;2.5;;
49582;SDS011;36329;48.816;44.624;2023-05-10T09:10:32;7;;;2.6;;
49582;SDS011;36329;48.816;44.624;2023-05-10T09:13:34;6.1;;;2.4;;
49582;SDS011;36329;48.816;44.624;2023-05-10T09:16:37;6.5;;;2;;
49582;SDS011;36329;48.816;44.624;2023-05-10T09:19:39;5.1;;;2.6;;
49582;SDS011;36329;48.816;44.624;2023-05-10T09:22:41;4.9;;;2.2;;
49582;SDS011;36329;48.816;44.624;2023-05-10T09:25:43;5.9;;;2.3;;
49582;SDS011;36329;48.816;44.624;2023-05-10T09:28:53;7.6;;;2.3;;
49582;SDS011;36329;48.816;44.624;2023-05-10T09:31:57;6.9;;;2;;
49582;SDS011;36329;48.816;44.624;2023-05-10T09:34:58;6.1;;;2.2;;
49582;SDS011;36329;48.816;44.624;2023-05-10T09:38:08;5.2;;;2.2;;
49582;SDS011;36329;48.816;44.624;2023-05-10T09:41:15;8;;;2.2;;
49582;SDS011;36329;48.816;44.624;2023-05-10T09:44:18;4.8;;;2.1;;
49582;SDS011;36329;48.816;44.624;2023-05-10T09:47:20;9.1;;;2.3;;
49582;SDS011;36329;48.816;44.624;2023-05-10T09:50:22;7.4;;;2.6;;
49582;SDS011;36329;48.816;44.624;2023-05-10T09:53:24;8.7;;;2.7;;
49582;SDS011;36329;48.816;44.624;2023-05-10T09:56:34;9.5;;;2.4;;
49582;SDS011;36329;48.816;44.624;2023-05-10T09:59:38;8.3;;;2.6;;
49582;SDS011;36329;48.816;44.624;2023-05-10T10:02:45;8.2;;;2.8;;
49582;SDS011;36329;48.816;44.624;2023-05-10T10:05:48;7.2;;;2.6;;
49582;SDS011;36329;48.816;44.624;2023-05-10T10:08:55;10;;;2.8;;
49582;SDS011;36329;48.816;44.624;2023-05-10T10:11:58;7.2;;;2.9;;
49582;SDS011;36329;48.816;44.624;2023-05-10T10:15:01;9.9;;;2.9;;
49582;SDS011;36329;48.816;44.624;2023-05-10T10:18:07;7.7;;;3.2;;
49582;SDS011;36329;48.816;44.624;2023-05-10T10:21:14;6.2;;;2.6;;
49582;SDS011;36329;48.816;44.624;2023-05-10T10:24:17;8.4;;;2.9;;
49582;SDS011;36329;48.816;44.624;2023-05-10T10:27:20;11.9;;;2.9;;
49582;SDS011;36329;48.816;44.624;2023-05-10T10:30:29;11;;;2.8;;
49582;SDS011;36329;48.816;44.624;2023-05-10T10:33:40;12.2;;;3.3;;
49582;SDS011;36329;48.816;44.624;2023-05-10T10:36:53;8.9;;;2.8;;
49582;SDS011;36329;48.816;44.624;2023-05-10T10:39:56;9.3;;;2.8;;
49582;SDS011;36329;48.816;44.624;2023-05-10T10:43:20;10;;;3;;
49582;SDS011;36329;48.816;44.624;2023-05-10T10:46:24;9.1;;;2.6;;
49582;SDS011;36329;48.816;44.624;2023-05-10T10:49:26;8.4;;;2.5;;
49582;SDS011;36329;48.816;44.624;2023-05-10T10:52:30;7.9;;;2.6;;
49582;SDS011;36329;48.816;44.624;2023-05-10T10:55:33;7.8;;;2.6;;
49582;SDS011;36329;48.816;44.624;2023-05-10T10:58:35;7.5;;;2.6;;
49582;SDS011;36329;48.816;44.624;2023-05-10T11:01:39;6.5;;;2.5;;
49582;SDS011;36329;48.816;44.624;2023-05-10T11:04:44;6.9;;;2.4;;
49582;SDS011;36329;48.816;44.624;2023-05-10T11:07:55;6.5;;;2.5;;
49582;SDS011;36329;48.816;44.624;2023-05-10T11:11:03;8.1;;;2.6;;
49582;SDS011;36329;48.816;44.624;2023-05-10T11:14:06;8;;;2.5;;
49582;SDS011;36329;48.816;44.624;2023-05-10T11:20:27;8.2;;;2.4;;
49582;SDS011;36329;48.816;44.624;2023-05-10T11:23:31;7.7;;;3.1;;
49582;SDS011;36329;48.816;44.624;2023-05-10T11:26:34;8.7;;;2.9;;
49582;SDS011;36329;48.816;44.624;2023-05-10T11:29:36;7.9;;;2.7;;
49582;SDS011;36329;48.816;44.624;2023-05-10T11:32:39;6.6;;;2.7;;
49582;SDS011;36329;48.816;44.624;2023-05-10T11:35:41;7.9;;;2.4;;
49582;SDS011;36329;48.816;44.624;2023-05-10T11:38:44;9.1;;;2.7;;
49582;SDS011;36329;48.816;44.624;2023-05-10T11:41:48;12;;;2.7;;
49582;SDS011;36329;48.816;44.624;2023-05-10T11:44:50;6.4;;;2.6;;
49582;SDS011;36329;48.816;44.624;2023-05-10T11:47:53;8.2;;;2.5;;
49582;SDS011;36329;48.816;44.624;2023-05-10T11:50:55;6.7;;;2.3;;
49582;SDS011;36329;48.816;44.624;2023-05-10T11:53:57;7.2;;;2.5;;
49582;SDS011;36329;48.816;44.624;2023-05-10T11:57:00;8.3;;;2.5;;
49582;SDS011;36329;48.816;44.624;2023-05-10T12:00:02;8.2;;;2.5;;
49582;SDS011;36329;48.816;44.624;2023-05-10T12:03:07;10.2;;;3;;
49582;SDS011;36329;48.816;44.624;2023-05-10T12:06:10;16.2;;;4.1;;
49582;SDS011;36329;48.816;44.624;2023-05-10T12:09:12;13.7;;;3.9;;
49582;SDS011;36329;48.816;44.624;2023-05-10T12:12:15;19.3;;;5.8;;
49582;SDS011;36329;48.816;44.624;2023-05-10T12:15:18;11.5;;;4.3;;
49582;SDS011;36329;48.816;44.624;2023-05-10T12:18:22;12.1;;;3.4;;
49582;SDS011;36329;48.816;44.624;2023-05-10T12:21:26;8.4;;;2.6;;
49582;SDS011;36329;48.816;44.624;2023-05-10T12:24:30;8.1;;;2.5;;
49582;SDS011;36329;48.816;44.624;2023-05-10T12:27:32;8.3;;;2.4;;
49582;SDS011;36329;48.816;44.624;2023-05-10T12:30:34;11;;;2.1;;
49582;SDS011;36329;48.816;44.624;2023-05-10T12:33:38;11.4;;;2.1;;
49582;SDS011;36329;48.816;44.624;2023-05-10T12:36:41;9.6;;;2.2;;
49582;SDS011;36329;48.816;44.624;2023-05-10T12:39:44;6.7;;;2;;
49582;SDS011;36329;48.816;44.624;2023-05-10T12:42:46;6.9;;;2;;
49582;SDS011;36329;48.816;44.624;2023-05-10T12:45:48;7.4;;;2.2;;
49582;SDS011;36329;48.816;44.624;2023-05-10T12:48:50;10.4;;;2.4;;
49582;SDS011;36329;48.816;44.624;2023-05-10T12:51:52;7;;;2.5;;
49582;SDS011;36329;48.816;44.624;2023-05-10T12:54:54;8.6;;;2.5;;
49582;SDS011;36329;48.816;44.624;2023-05-10T12:57:57;9.3;;;1.8;;
49582;SDS011;36329;48.816;44.624;2023-05-10T13:00:59;5.1;;;1.9;;
49582;SDS011;36329;48.816;44.624;2023-05-10T13:04:01;5.3;;;1.8;;
49582;SDS011;36329;48.816;44.624;2023-05-10T13:07:03;6.7;;;1.9;;
49582;SDS011;36329;48.816;44.624;2023-05-10T13:10:06;4.9;;;2;;
49582;SDS011;36329;48.816;44.624;2023-05-10T13:13:08;4.5;;;1.9;;
49582;SDS011;36329;48.816;44.624;2023-05-10T13:16:10;7.4;;;3.1;;
49582;SDS011;36329;48.816;44.624;2023-05-10T13:19:12;6.1;;;2.3;;
49582;SDS011;36329;48.816;44.624;2023-05-10T13:22:20;14.2;;;3.3;;
49582;SDS011;36329;48.816;44.624;2023-05-10T13:25:22;8;;;2.5;;
49582;SDS011;36329;48.816;44.624;2023-05-10T13:28:24;9.3;;;2.9;;
49582;SDS011;36329;48.816;44.624;2023-05-10T13:31:26;7.6;;;2.6;;
49582;SDS011;36329;48.816;44.624;2023-05-10T13:34:28;12.7;;;4.3;;
49582;SDS011;36329;48.816;44.624;2023-05-10T13:37:29;12.8;;;3.2;;
49582;SDS011;36329;48.816;44.624;2023-05-10T13:40:31;9.4;;;3.1;;
49582;SDS011;36329;48.816;44.624;2023-05-10T13:43:33;8;;;3.2;;
49582;SDS011;36329;48.816;44.624;2023-05-10T13:46:35;10.9;;;3.9;;
49582;SDS011;36329;48.816;44.624;2023-05-10T13:49:37;9;;;3.8;;
49582;SDS011;36329;48.816;44.624;2023-05-10T13:52:39;6;;;2.6;;
49582;SDS011;36329;48.816;44.624;2023-05-10T13:55:41;8.8;;;2.3;;
49582;SDS011;36329;48.816;44.624;2023-05-10T13:58:43;5.7;;;2;;
49582;SDS011;36329;48.816;44.624;2023-05-10T14:01:45;9.2;;;2.1;;
49582;SDS011;36329;48.816;44.624;2023-05-10T14:04:47;5;;;1.9;;
49582;SDS011;36329;48.816;44.624;2023-05-10T14:07:49;6;;;1.9;;
49582;SDS011;36329;48.816;44.624;2023-05-10T14:10:51;4.8;;;2.4;;
49582;SDS011;36329;48.816;44.624;2023-05-10T14:13:53;5.4;;;2.1;;
49582;SDS011;36329;48.816;44.624;2023-05-10T14:16:56;5.7;;;2.1;;
49582;SDS011;36329;48.816;44.624;2023-05-10T14:19:57;6.6;;;2.2;;
49582;SDS011;36329;48.816;44.624;2023-05-10T14:22:59;4.6;;;2.1;;
49582;SDS011;36329;48.816;44.624;2023-05-10T14:26:02;6.2;;;2.3;;
49582;SDS011;36329;48.816;44.624;2023-05-10T14:29:04;4.4;;;1.8;;
49582;SDS011;36329;48.816;44.624;2023-05-10T14:32:06;3.5;;;2.1;;
49582;SDS011;36329;48.816;44.624;2023-05-10T14:35:24;7.3;;;2.7;;
49582;SDS011;36329;48.816;44.624;2023-05-10T14:38:26;6.3;;;2.6;;
49582;SDS011;36329;48.816;44.624;2023-05-10T14:41:28;6.5;;;2.8;;
49582;SDS011;36329;48.816;44.624;2023-05-10T14:44:30;8.3;;;3.3;;
49582;SDS011;36329;48.816;44.624;2023-05-10T14:47:32;7.2;;;3.5;;
49582;SDS011;36329;48.816;44.624;2023-05-10T14:50:33;8.2;;;3.5;;
49582;SDS011;36329;48.816;44.624;2023-05-10T14:53:36;10.1;;;3.4;;
49582;SDS011;36329;48.816;44.624;2023-05-10T14:56:38;7;;;3;;
49582;SDS011;36329;48.816;44.624;2023-05-10T14:59:39;7.5;;;3;;
49582;SDS011;36329;48.816;44.624;2023-05-10T15:02:41;8.5;;;3.2;;
49582;SDS011;36329;48.816;44.624;2023-05-10T15:05:43;7.7;;;2.7;;
49582;SDS011;36329;48.816;44.624;2023-05-10T15:08:45;7.1;;;2.9;;
49582;SDS011;36329;48.816;44.624;2023-05-10T15:11:47;8.2;;;2.4;;
49582;SDS011;36329;48.816;44.624;2023-05-10T15:14:49;6.6;;;2.4;;
49582;SDS011;36329;48.816;44.624;2023-05-10T15:17:51;6.6;;;2;;
49582;SDS011;36329;48.816;44.624;2023-05-10T15:20:53;4.9;;;2;;
49582;SDS011;36329;48.816;44.624;2023-05-10T15:23:54;4.7;;;2;;
49582;SDS011;36329;48.816;44.624;2023-05-10T15:26:56;5;;;1.8;;
49582;SDS011;36329;48.816;44.624;2023-05-10T15:29:59;5.8;;;1.6;;
49582;SDS011;36329;48.816;44.624;2023-05-10T15:33:01;5.4;;;1.8;;
49582;SDS011;36329;48.816;44.624;2023-05-10T15:36:04;3.4;;;1.5;;
49582;SDS011;36329;48.816;44.624;2023-05-10T15:39:06;5.2;;;1.6;;
49582;SDS011;36329;48.816;44.624;2023-05-10T15:42:08;7.3;;;2.1;;
49582;SDS011;36329;48.816;44.624;2023-05-10T15:45:10;7.4;;;2.1;;
49582;SDS011;36329;48.816;44.624;2023-05-10T15:48:12;5.5;;;2;;
49582;SDS011;36329;48.816;44.624;2023-05-10T15:51:14;3.2;;;2;;
49582;SDS011;36329;48.816;44.624;2023-05-10T15:54:16;6.2;;;2.4;;
49582;SDS011;36329;48.816;44.624;2023-05-10T15:57:18;6.8;;;2.2;;
49582;SDS011;36329;48.816;44.624;2023-05-10T16:00:20;8.6;;;3.1;;
49582;SDS011;36329;48.816;44.624;2023-05-10T16:03:22;5.6;;;2.7;;
49582;SDS011;36329;48.816;44.624;2023-05-10T16:06:24;5.3;;;2.6;;
49582;SDS011;36329;48.816;44.624;2023-05-10T16:09:26;6.8;;;2.6;;
49582;SDS011;36329;48.816;44.624;2023-05-10T16:12:28;6.8;;;2.5;;
49582;SDS011;36329;48.816;44.624;2023-05-10T16:15:29;7.8;;;2.8;;
49582;SDS011;36329;48.816;44.624;2023-05-10T16:18:32;8;;;2.6;;
49582;SDS011;36329;48.816;44.624;2023-05-10T16:21:34;9.2;;;2.5;;
49582;SDS011;36329;48.816;44.624;2023-05-10T16:24:35;4.9;;;2.4;;
49582;SDS011;36329;48.816;44.624;2023-05-10T16:27:37;7.1;;;2.6;;
49582;SDS011;36329;48.816;44.624;2023-05-10T16:30:39;5;;;2.6;;
49582;SDS011;36329;48.816;44.624;2023-05-10T16:33:41;5.6;;;2.2;;
49582;SDS011;36329;48.816;44.624;2023-05-10T16:36:43;7.6;;;2.5;;
49582;SDS011;36329;48.816;44.624;2023-05-10T16:39:46;7.1;;;2.6;;
49582;SDS011;36329;48.816;44.624;2023-05-10T16:42:48;4.4;;;2.4;;
49582;SDS011;36329;48.816;44.624;2023-05-10T16:45:50;8.8;;;2.9;;
49582;SDS011;36329;48.816;44.624;2023-05-10T16:48:52;8.1;;;3;;
49582;SDS011;36329;48.816;44.624;2023-05-10T16:51:54;5.4;;;2.5;;
49582;SDS011;36329;48.816;44.624;2023-05-10T16:54:56;9.6;;;2.5;;
49582;SDS011;36329;48.816;44.624;2023-05-10T16:57:59;8.6;;;2.3;;
49582;SDS011;36329;48.816;44.624;2023-05-10T17:01:01;5.8;;;2.7;;
49582;SDS011;36329;48.816;44.624;2023-05-10T17:04:03;9.7;;;3.1;;
49582;SDS011;36329;48.816;44.624;2023-05-10T17:07:05;5.8;;;2.5;;
49582;SDS011;36329;48.816;44.624;2023-05-10T17:10:07;4.6;;;2.4;;
49582;SDS011;36329;48.816;44.624;2023-05-10T17:13:09;6.7;;;2.4;;
49582;SDS011;36329;48.816;44.624;2023-05-10T17:16:11;5.2;;;2.2;;
49582;SDS011;36329;48.816;44.624;2023-05-10T17:19:13;7.1;;;2.3;;
49582;SDS011;36329;48.816;44.624;2023-05-10T17:22:15;5.9;;;2.2;;
49582;SDS011;36329;48.816;44.624;2023-05-10T17:25:17;5.2;;;2.3;;
49582;SDS011;36329;48.816;44.624;2023-05-10T17:28:19;7.8;;;2.5;;
49582;SDS011;36329;48.816;44.624;2023-05-10T17:31:21;5.6;;;2.5;;
49582;SDS011;36329;48.816;44.624;2023-05-10T17:34:23;7.8;;;2.7;;
49582;SDS011;36329;48.816;44.624;2023-05-10T17:37:25;7.6;;;2.8;;
49582;SDS011;36329;48.816;44.624;2023-05-10T17:40:27;6.5;;;2.7;;
49582;SDS011;36329;48.816;44.624;2023-05-10T17:43:29;5.2;;;2.5;;
49582;SDS011;36329;48.816;44.624;2023-05-10T17:46:31;8.1;;;2.6;;
49582;SDS011;36329;48.816;44.624;2023-05-10T17:49:33;6;;;3;;
49582;SDS011;36329;48.816;44.624;2023-05-10T17:52:35;5.9;;;3.1;;
49582;SDS011;36329;48.816;44.624;2023-05-10T17:55:38;7.4;;;3.1;;
49582;SDS011;36329;48.816;44.624;2023-05-10T17:58:41;9;;;3.1;;
49582;SDS011;36329;48.816;44.624;2023-05-10T18:01:43;8.8;;;3.3;;
49582;SDS011;36329;48.816;44.624;2023-05-10T18:04:45;7.5;;;3.6;;
49582;SDS011;36329;48.816;44.624;2023-05-10T18:07:48;6.4;;;2.9;;
49582;SDS011;36329;48.816;44.624;2023-05-10T18:10:50;7.1;;;3.3;;
49582;SDS011;36329;48.816;44.624;2023-05-10T18:13:52;6.3;;;3.3;;
49582;SDS011;36329;48.816;44.624;2023-05-10T18:16:55;6;;;3.3;;
49582;SDS011;36329;48.816;44.624;2023-05-10T18:19:57;6.5;;;3;;
49582;SDS011;36329;48.816;44.624;2023-05-10T18:22:59;6.5;;;3;;
49582;SDS011;36329;48.816;44.624;2023-05-10T18:26:00;5.9;;;2.9;;
49582;SDS011;36329;48.816;44.624;2023-05-10T18:29:03;5.2;;;3.2;;
49582;SDS011;36329;48.816;44.624;2023-05-10T18:32:05;7.2;;;3.1;;
49582;SDS011;36329;48.816;44.624;2023-05-10T18:35:07;7.7;;;2.8;;
49582;SDS011;36329;48.816;44.624;2023-05-10T18:38:09;6.3;;;3.1;;
49582;SDS011;36329;48.816;44.624;2023-05-10T18:41:12;6.2;;;2.9;;
49582;SDS011;36329;48.816;44.624;2023-05-10T18:44:14;7;;;3.1;;
49582;SDS011;36329;48.816;44.624;2023-05-10T18:47:16;4.8;;;2.9;;
49582;SDS011;36329;48.816;44.624;2023-05-10T18:50:18;5.9;;;3;;